Albert Lea, Minnesota
Current Conditions -  °F | °C
As of 5:13 AM on Wednesday 26 Nov 2014 (Local Time) from KAEL Reporting Station
Light Snow Light Snow  
Wind Chill: -10°   Ceiling: 3400
Heat Index: -4°   Visibility: 3mi
Dew Point: -4°   Wind: 13mph
Humidity: 100%   Direction: 130°SE
Pressure: 29.95"   Gusts: NA
Location:  43.65°N, 93.37°W
Report Text: KAEL 261113Z AUTO 13011KT 3SM -SN SCT019 BKN034 OVC065 M04/M04 A2995 RMK AO2
Loading
Personal Weather Stations






























Interactive Weather Map New forecast layout! Learn more

10-Day Weather Forecast

Advertisements
Track Severe Weather on mobile